Latest Weather Observations for Hay Airport

IDN60801

Issued at 2:04 pm EDT Tuesday 3 March 2015 (issued every 30 minutes, with the page automatically refreshed every 10 minutes)

About weather observations | Map of weather stations | Latest weather observations for NSW | Other Formats
Station Details ID: 075019 Name: HAY AIRPORT AWS Lat: -34.54 Lon: 144.83 Height: 92.0 m
Data from the previous 72 hours. | See also: Recent months for locations in New South Wales
Date/Time
EDT
Temp
°C
App
Temp
°C
Dew
Point
Rel
Hum
%
Delta-T
°C
Wind Press
QNH
hPa
Press
MSL
hPa
Rain
since 9 am
mm
Dir
 
Spd
km/h
Gust
km/h
Spd
kts
Gust
kts
03/02:00pm 31.0 25.1 -0.6 13 15.1 SW 20 28 11 15 1013.9 1013.5 0.0
03/01:30pm 30.5 26.2 1.0 15 14.4 SSW 13 28 7 15 1014.2 1013.8 0.0
03/01:00pm 30.3 24.8 0.8 15 14.4 SSW 19 28 10 15 1014.6 1014.3 0.0
03/12:30pm 29.5 24.7 2.7 18 13.4 S 17 28 9 15 1014.9 1014.6 0.0
03/12:00pm 29.0 24.7 5.1 22 12.4 S 17 26 9 14 1015.0 1014.7 0.0
03/11:30am 28.6 24.6 6.7 25 11.7 S 17 22 9 12 1015.0 1014.7 0.0
03/11:00am 27.4 23.4 6.8 27 10.9 S 17 24 9 13 1015.3 1015.0 0.0
03/10:30am 26.0 22.1 7.1 30 10.0 SSE 17 22 9 12 1015.1 1014.8 0.0
03/10:00am 24.7 20.8 6.9 32 9.3 SSE 17 20 9 11 1014.8 1014.5 0.0
03/09:30am 24.0 20.0 6.7 33 9.0 S 17 22 9 12 1014.7 1014.4 0.0
03/09:00am 23.5 19.4 6.3 33 8.8 S 17 20 9 11 1014.4 1014.0 0.0
03/08:30am 22.7 18.5 5.6 33 8.6 SSW 17 20 9 11 1014.5 1014.2 0.0
03/08:00am 22.2 18.6 5.2 33 8.5 SSW 13 15 7 8 1014.2 1013.8 0.0
03/07:30am 21.7 18.1 5.2 34 8.2 SSW 13 17 7 9 1013.5 1013.1 0.0
03/07:00am 21.5 17.9 5.0 34 8.2 SSW 13 15 7 8 1013.1 1012.7 0.0
03/06:30am 21.4 18.0 5.7 36 7.9 SSW 13 17 7 9 1012.6 1012.2 0.0
03/06:00am 21.9 18.2 6.2 36 8.0 SSW 15 17 8 9 1012.5 1012.1 0.0
03/05:30am 22.0 18.8 7.0 38 7.7 S 13 15 7 8 1012.4 1012.0 0.0
03/05:00am 22.0 18.6 7.8 40 7.4 S 15 17 8 9 1012.2 1011.8 0.0
03/04:30am 21.3 18.0 8.2 43 6.9 SSW 15 17 8 9 1012.4 1012.0 0.0
03/04:00am 20.0 17.0 7.7 45 6.4 SSW 13 15 7 8 1012.1 1011.7 0.0
03/03:30am 20.1 18.0 8.1 46 6.2 SSW 9 11 5 6 1012.0 1011.6 0.0
03/03:00am 20.4 18.2 7.7 44 6.6 S 9 11 5 6 1012.0 1011.6 0.0
03/02:30am 20.6 18.4 7.9 44 6.6 S 9 11 5 6 1012.2 1011.8 0.0
03/02:00am 21.0 17.3 8.0 43 6.8 SSW 17 20 9 11 1012.6 1012.2 0.0
03/01:30am 21.4 18.5 8.0 42 7.0 S 13 17 7 9 1012.8 1012.4 0.0
03/01:00am 21.7 18.7 7.9 41 7.2 SSW 13 15 7 8 1013.0 1012.6 0.0
03/12:30am 23.5 20.6 8.0 37 8.2 S 13 17 7 9 1012.8 1012.4 0.0
03/12:00am 24.6 21.3 8.1 35 8.8 S 15 17 8 9 1012.5 1012.1 0.0
 
Date/Time
EDT
Temp
°C
App
Temp
°C
Dew
Point
Rel
Hum
%
Delta-T
°C
Wind Press
QNH
hPa
Press
MSL
hPa
Rain
since 9 am
mm
Dir
 
Spd
km/h
Gust
km/h
Spd
kts
Gust
kts
02/11:30pm 24.6 20.8 7.7 34 9.0 S 17 22 9 12 1012.7 1012.3 0.0
02/11:00pm 24.2 20.2 6.5 32 9.2 SSW 17 20 9 11 1013.1 1012.7 0.0
02/10:30pm 24.8 20.6 5.6 29 9.8 SSW 17 20 9 11 1012.9 1012.5 0.0
02/10:00pm 24.5 20.9 3.2 25 10.4 SW 11 15 6 8 1012.6 1012.2 0.0
02/09:30pm 26.1 22.5 2.7 22 11.5 SW 11 15 6 8 1012.3 1011.9 0.0
02/09:00pm 26.8 23.2 2.7 21 11.9 SW 11 11 6 6 1012.0 1011.6 0.0
02/08:30pm 27.8 23.8 2.8 20 12.4 SW 13 17 7 9 1011.8 1011.4 0.0
02/08:00pm 29.0 26.2 2.3 18 13.2 SW 6 11 3 6 1011.4 1011.0 0.0
02/07:30pm 30.3 27.4 2.5 17 13.9 SSW 7 11 4 6 1011.0 1010.7 0.0
02/07:00pm 30.6 28.7 2.8 17 14.1 NNE 2 6 1 3 1010.7 1010.4 0.0
02/06:30pm 30.6 28.9 1.9 16 14.3 CALM 0 0 0 0 1010.4 1010.1 0.0
02/06:00pm 31.6 28.8 1.8 15 14.9 WNW 6 13 3 7 1010.5 1010.2 0.0
02/05:30pm 31.4 28.1 2.6 16 14.6 NNE 9 13 5 7 1010.8 1010.5 0.0
02/05:00pm 32.1 29.3 3.1 16 14.9 WNW 7 17 4 9 1010.7 1010.4 0.0
02/04:30pm 32.1 28.9 3.1 16 14.9 NNW 9 17 5 9 1011.0 1010.7 0.0
02/04:00pm 31.6 28.2 1.8 15 14.9 WNW 9 15 5 8 1011.5 1011.1 0.0
02/03:30pm 31.0 27.0 3.1 17 14.2 NE 13 20 7 11 1011.8 1011.4 0.0
02/03:00pm 29.6 28.1 6.9 24 12.2 N 4 11 2 6 1012.3 1011.9 0.0
02/02:30pm 29.4 27.3 6.7 24 12.2 ENE 7 13 4 7 1012.7 1012.3 0.0
02/02:00pm 28.8 26.4 8.5 28 11.2 E 11 22 6 12 1013.1 1012.7 0.0
02/01:30pm 28.1 25.1 9.4 31 10.4 NE 15 24 8 13 1013.3 1012.9 0.0
02/01:00pm 28.2 27.0 9.5 31 10.4 NNE 6 19 3 10 1014.2 1013.8 0.0
02/12:30pm 27.1 24.8 10.3 35 9.4 NNE 13 22 7 12 1014.8 1014.5 0.0
02/12:00pm 25.6 23.2 11.4 41 8.1 ENE 15 20 8 11 1015.3 1015.0 0.0
02/11:30am 24.9 22.2 11.8 44 7.5 ENE 17 26 9 14 1015.5 1015.2 0.0
02/11:00am 23.0 19.8 11.4 48 6.5 ENE 19 24 10 13 1015.9 1015.6 0.0
02/10:30am 22.6 18.9 11.4 49 6.3 E 22 30 12 16 1015.7 1015.4 0.0
02/10:00am 21.4 17.5 10.9 51 5.8 E 22 28 12 15 1015.9 1015.6 0.0
02/09:30am 19.4 15.7 9.6 53 5.2 ESE 19 24 10 13 1015.9 1015.6 0.0
02/09:00am 17.3 13.7 8.4 56 4.6 SE 17 22 9 12 1016.2 1015.9 0.0
02/08:30am 15.8 12.5 8.1 60 3.9 SE 15 22 8 12 1015.9 1015.6 0.0
02/08:00am 14.3 10.2 8.0 66 3.1 SE 19 24 10 13 1015.6 1015.3 0.0
02/07:30am 13.3 10.3 7.7 69 2.8 SSE 13 15 7 8 1015.6 1015.3 0.0
02/07:00am 13.0 10.0 7.7 70 2.6 SSE 13 19 7 10 1015.3 1015.0 0.0
02/06:30am 13.4 9.7 7.8 69 2.8 SE 17 24 9 13 1015.0 1014.7 0.0
02/06:00am 13.9 9.6 7.9 67 3.0 SSE 20 26 11 14 1015.2 1014.9 0.0
02/05:30am 14.2 9.5 7.9 66 3.1 SSE 22 32 12 17 1014.8 1014.5 0.0
02/05:00am 14.7 9.6 7.7 63 3.5 SSE 24 33 13 18 1014.7 1014.4 0.0
02/04:30am 14.9 10.5 7.5 61 3.7 SSE 20 28 11 15 1014.9 1014.6 0.0
02/04:00am 15.4 11.0 7.4 59 4.0 SSE 20 30 11 16 1014.7 1014.4 0.0
02/03:30am 15.7 11.4 7.2 57 4.2 S 19 24 10 13 1014.7 1014.4 0.0
02/03:00am 16.2 11.9 7.2 55 4.5 S 19 26 10 14 1014.9 1014.6 0.0
02/02:30am 16.7 12.2 7.1 53 4.8 S 20 32 11 17 1014.9 1014.6 0.0
02/02:00am 17.2 12.3 6.7 50 5.2 S 22 30 12 16 1015.1 1014.8 0.0
02/01:30am 17.4 13.0 6.6 49 5.4 SSE 19 22 10 12 1015.2 1014.9 0.0
02/01:00am 18.0 13.6 6.5 47 5.7 SSE 19 28 10 15 1015.3 1015.0 0.0
02/12:30am 18.4 13.9 5.9 44 6.2 SSE 19 26 10 14 1014.9 1014.6 0.0
02/12:00am 18.8 14.2 5.6 42 6.5 SSE 19 26 10 14 1015.1 1014.8 0.0
 
Date/Time
EDT
Temp
°C
App
Temp
°C
Dew
Point
Rel
Hum
%
Delta-T
°C
Wind Press
QNH
hPa
Press
MSL
hPa
Rain
since 9 am
mm
Dir
 
Spd
km/h
Gust
km/h
Spd
kts
Gust
kts
01/11:30pm 19.3 14.7 5.4 40 6.8 SSE 19 24 10 13 1014.9 1014.6 0.0
01/11:00pm 19.9 15.6 5.2 38 7.2 SSE 17 24 9 13 1015.0 1014.7 0.0
01/10:30pm 20.7 15.8 5.1 36 7.7 SSE 20 30 11 16 1014.9 1014.6 0.0
01/10:00pm 21.4 16.2 5.3 35 8.0 SSE 22 30 12 16 1014.5 1014.2 0.0
01/09:30pm 22.3 16.5 6.1 35 8.2 SSE 26 32 14 17 1014.1 1013.7 0.0
01/09:00pm 23.0 18.5 5.9 33 8.7 SSE 19 24 10 13 1013.7 1013.3 0.0
01/08:30pm 24.1 18.7 4.5 28 9.8 S 22 30 12 16 1013.4 1013.0 0.0
01/08:00pm 24.7 18.9 4.5 27 10.1 S 24 33 13 18 1013.0 1012.6 0.0
01/07:30pm 25.6 18.6 4.1 25 10.8 S 30 41 16 22 1012.6 1012.2 0.0
01/07:00pm 26.4 19.4 4.2 24 11.2 SSE 30 41 16 22 1012.3 1011.9 0.0
01/06:30pm 26.9 19.5 4.0 23 11.5 S 32 41 17 22 1012.0 1011.6 0.0
01/06:00pm 27.6 20.1 3.3 21 12.2 S 32 41 17 22 1011.7 1011.3 0.0
01/05:30pm 27.9 21.3 4.2 22 12.1 S 28 46 15 25 1011.3 1010.9 0.0
01/05:00pm 29.1 22.2 4.6 21 12.7 S 30 44 16 24 1011.3 1010.9 0.0
01/04:30pm 27.8 20.6 4.8 23 11.8 SSW 32 44 17 24 1011.4 1011.0 0.0
01/04:17pm 28.1 20.6 3.7 21 12.3 SSW 32 50 17 27 1011.4 1011.0 0.0
01/04:00pm 28.1 20.5 3.0 20 12.5 SSW 32 43 17 23 1011.4 1011.0 0.0
01/03:33pm 27.7 20.3 4.1 22 12.0 SSW 32 50 17 27 1011.7 1011.3 0.0
01/03:30pm 27.2 20.6 4.3 23 11.6 SSW 28 43 15 23 1011.6 1011.2 0.0
01/03:18pm 28.2 21.4 5.1 23 12.0 SSW 30 48 16 26 1011.7 1011.3 0.0
01/03:00pm 27.6 20.0 4.0 22 11.9 SSW 33 48 18 26 1011.9 1011.5 0.0
01/02:30pm 26.5 19.4 3.7 23 11.4 SSW 30 43 16 23 1011.9 1011.5 0.0
01/02:00pm 26.7 19.9 5.1 25 11.1 SSW 30 41 16 22 1011.9 1011.5 0.0
01/01:30pm 25.8 18.7 5.4 27 10.5 SSW 32 46 17 25 1012.2 1011.8 0.0
01/01:01pm 25.5 18.1 5.1 27 10.4 SSW 33 52 18 28 1012.3 1011.9 0.0
01/01:00pm 25.6 18.4 5.2 27 10.4 SSW 32 48 17 26 1012.4 1012.0 0.0
01/12:30pm 25.1 18.0 5.3 28 10.1 SSW 32 43 17 23 1012.4 1012.0 0.0
01/12:00pm 25.0 17.9 6.2 30 9.7 SSW 33 50 18 27 1012.4 1012.0 0.0
01/11:54am 24.8 17.8 6.1 30 9.7 SSW 32 50 17 27 1012.4 1012.0 0.0
01/11:30am 23.9 16.5 6.7 33 8.9 SSW 35 48 19 26 1012.5 1012.1 0.0
01/11:00am 22.9 16.4 9.0 41 7.5 SSW 33 44 18 24 1012.2 1011.8 0.0
01/10:30am 20.5 14.3 10.0 51 5.7 SSW 33 39 18 21 1012.1 1011.6 0.0
01/10:00am 20.8 14.9 11.2 54 5.3 SW 33 43 18 23 1011.6 1011.1 0.0
01/09:30am 20.7 15.7 12.1 58 4.8 SSW 30 37 16 20 1011.1 1010.7 0.0
01/09:08am 20.0 13.9 11.7 59 4.6 SSW 35 54 19 29 1010.7 1010.3 0.0
01/09:00am 20.5 13.2 11.4 56 5.1 SSW 41 54 22 29 1010.6 1010.2 0.0
01/08:30am 20.6 16.3 16.0 75 2.8 SW 33 43 18 23 1009.8 1009.4 0.0
01/08:00am 20.1 15.9 15.7 76 2.6 SW 32 39 17 21 1009.3 1008.9 0.0
01/07:30am 19.9 15.5 15.7 77 2.5 WSW 33 43 18 23 1008.6 1008.2 0.0
01/07:00am 20.2 16.1 16.0 77 2.5 WSW 32 41 17 22 1007.9 1007.5 0.0
01/06:30am 20.5 17.0 16.5 78 2.4 SW 30 35 16 19 1007.4 1007.0 0.0
01/06:00am 20.7 16.7 16.3 76 2.7 SW 32 43 17 23 1007.0 1006.6 0.0
01/05:30am 21.4 17.3 15.9 71 3.3 WSW 32 43 17 23 1006.3 1005.9 0.0
01/05:00am 22.8 18.9 15.4 63 4.5 WSW 30 39 16 21 1006.0 1005.5 0.0
01/04:30am 24.4 22.5 15.1 56 5.6 SW 19 28 10 15 1005.0 1004.5 0.0
01/04:00am 24.8 22.9 15.1 54 5.9 SW 19 24 10 13 1005.7 1005.2 0.0
01/03:30am 24.9 23.7 15.0 54 6.0 SSW 15 20 8 11 1004.9 1004.4 0.0
01/03:00am 24.9 23.7 15.0 54 6.0 SW 15 19 8 10 1005.2 1004.7 0.0
01/02:30am 25.4 23.7 14.8 52 6.4 SSE 17 20 9 11 1004.3 1003.8 0.0
01/02:00am 25.5 22.9 14.9 52 6.4 S 22 30 12 16 1004.8 1004.3 0.0
01/01:30am 25.7 23.1 14.8 51 6.6 S 22 30 12 16 1005.4 1004.9 0.0
01/01:00am 26.0 23.1 15.1 51 6.6 S 24 32 13 17 1005.1 1004.6 0.0
01/12:30am 27.2 22.0 14.6 46 7.6 SSW 35 52 19 28 1005.1 1004.6 0.0
01/12:26am 27.5 22.7 14.5 45 7.8 SSW 33 52 18 28 1005.0 1004.5 0.0
01/12:00am 28.5 24.5 14.0 41 8.7 SSW 28 41 15 22 1004.2 1003.7 0.0
 
Date/Time
EDT
Temp
°C
App
Temp
°C
Dew
Point
Rel
Hum
%
Delta-T
°C
Wind Press
QNH
hPa
Press
MSL
hPa
Rain
since 9 am
mm
Dir
 
Spd
km/h
Gust
km/h
Spd
kts
Gust
kts
28/11:30pm 30.7 27.3 7.8 24 12.6 NNW 15 35 8 19 1003.8 1003.3 0.0
28/11:00pm 30.6 26.5 7.7 24 12.6 NNE 19 24 10 13 1002.6 1002.1 0.0
28/10:30pm 30.9 27.1 7.4 23 12.8 NNE 17 20 9 11 1002.9 1002.4 0.0
28/10:00pm 31.1 27.3 7.5 23 13.0 NNE 17 20 9 11 1003.1 1002.6 0.0
28/09:30pm 31.2 28.3 8.2 24 12.7 NNE 13 17 7 9 1003.1 1002.6 0.0
28/09:00pm 31.4 28.6 8.4 24 12.9 NNE 13 15 7 8 1003.0 1002.5 0.0
28/08:30pm 32.2 29.7 8.4 23 13.3 NNE 11 13 6 7 1002.8 1002.3 0.0
28/08:00pm 34.3 32.6 7.4 19 15.0 NNE 6 9 3 5 1002.7 1002.2 0.0
28/07:30pm 35.9 32.9 7.9 18 15.8 N 13 15 7 8 1002.7 1002.2 0.0
28/07:00pm 36.4 34.1 7.4 17 16.3 N 9 17 5 9 1002.6 1002.1 0.0
28/06:30pm 36.3 32.3 8.2 18 16.0 N 19 26 10 14 1002.6 1002.1 0.0
28/06:00pm 37.2 35.6 8.1 17 16.6 WNW 6 13 3 7 1002.7 1002.2 0.0
28/05:30pm 36.6 34.3 7.6 17 16.3 NNW 9 20 5 11 1002.9 1002.4 0.0
28/05:00pm 36.6 33.7 6.7 16 16.7 WNW 11 20 6 11 1003.0 1002.5 0.0
28/04:30pm 36.8 33.2 6.9 16 16.7 WNW 15 26 8 14 1003.3 1002.8 0.0
28/04:00pm 37.3 34.2 7.3 16 16.9 WNW 13 26 7 14 1003.6 1003.1 0.0
28/03:30pm 36.9 34.1 7.0 16 16.7 NW 11 20 6 11 1004.1 1003.6 0.0
28/03:00pm 36.1 33.2 6.3 16 16.5 WSW 11 20 6 11 1004.5 1004.0 0.0
28/02:30pm 36.1 33.5 6.3 16 16.4 N 9 19 5 10 1004.7 1004.2 0.0

Other Formats:

Comma delimited format used in spreadsheet applications
http://www.bom.gov.au/fwo/IDN60801/IDN60801.94702.axf

JavaScript Object Notation format (JSON) in row-major order
http://www.bom.gov.au/fwo/IDN60801/IDN60801.94702.json